createdAt,value
2019-05-02T00:00:53.321Z,14.98
2019-05-02T00:03:25.485Z,17.80
2019-05-02T00:05:55.285Z,14.50
2019-05-02T00:08:29.283Z,19.90
2019-05-02T00:10:57.037Z,21.20
2019-05-02T00:13:27.138Z,18.45
2019-05-02T00:15:57.538Z,19.20
2019-05-02T00:18:32.056Z,17.57
2019-05-02T00:21:01.366Z,19.65
2019-05-02T00:23:30.569Z,19.67
2019-05-02T00:26:00.186Z,16.30
2019-05-02T00:28:29.949Z,17.05
2019-05-02T00:31:00.014Z,19.42
2019-05-02T00:33:34.384Z,16.87
2019-05-02T00:36:00.989Z,15.07
2019-05-02T00:38:33.383Z,18.00
2019-05-02T00:41:02.583Z,16.93
2019-05-02T00:43:34.300Z,16.50
2019-05-02T00:46:04.965Z,14.60
2019-05-02T00:48:42.407Z,14.53
2019-05-02T00:51:12.122Z,13.63
2019-05-02T00:53:44.517Z,17.77
2019-05-02T00:56:13.224Z,19.52
2019-05-02T00:58:42.842Z,17.05
2019-05-02T01:01:24.354Z,18.37
2019-05-02T01:03:57.709Z,19.02
2019-05-02T01:06:27.337Z,17.65
2019-05-02T01:08:57.032Z,15.90
2019-05-02T01:11:28.311Z,14.83
2019-05-02T01:13:57.984Z,16.45
2019-05-02T01:16:27.613Z,18.00
2019-05-02T01:18:57.226Z,19.00
2019-05-02T01:21:26.834Z,17.90
2019-05-02T01:24:03.042Z,18.57
2019-05-02T01:26:34.267Z,14.43
2019-05-02T01:29:19.997Z,15.80
2019-05-02T01:32:25.233Z,20.08
2019-05-02T01:35:01.584Z,15.75
2019-05-02T01:38:00.145Z,17.82
2019-05-02T01:40:29.854Z,16.52
2019-05-02T01:43:04.421Z,14.93
2019-05-02T01:45:34.069Z,17.15
2019-05-02T01:48:04.913Z,16.37
2019-05-02T01:50:34.852Z,15.00
2019-05-02T01:53:04.931Z,15.25
2019-05-02T01:55:34.684Z,14.87
2019-05-02T01:58:04.846Z,18.67
2019-05-02T02:00:34.594Z,14.33
2019-05-02T02:03:09.070Z,17.35
2019-05-02T02:05:36.776Z,20.57
2019-05-02T02:08:06.989Z,13.60
2019-05-02T02:10:36.707Z,16.23
2019-05-02T02:13:06.405Z,14.28
2019-05-02T02:15:36.113Z,13.43
2019-05-02T02:18:06.264Z,18.10
2019-05-02T02:20:50.282Z,16.67
2019-05-02T02:23:36.761Z,17.87
2019-05-02T02:26:11.915Z,14.18
2019-05-02T02:28:39.877Z,18.05
2019-05-02T02:31:09.610Z,17.55
2019-05-02T02:33:40.801Z,19.50
2019-05-02T02:36:10.790Z,15.88
2019-05-02T02:38:40.589Z,18.20
2019-05-02T02:41:13.064Z,20.48
2019-05-02T02:43:42.126Z,22.82
2019-05-02T02:46:20.346Z,20.57
2019-05-02T02:48:50.065Z,26.02
2019-05-02T02:51:24.049Z,18.50
2019-05-02T02:54:03.090Z,17.03
2019-05-02T02:56:22.602Z,18.52
2019-05-02T02:58:52.386Z,17.60
2019-05-02T03:01:28.538Z,19.30
2019-05-02T03:03:53.486Z,16.30
2019-05-02T03:06:23.286Z,24.63
2019-05-02T03:08:53.069Z,16.90
2019-05-02T03:11:25.566Z,19.20
2019-05-02T03:14:09.732Z,23.18
2019-05-02T03:16:46.178Z,19.77
2019-05-02T03:19:14.657Z,16.93
2019-05-02T03:21:54.223Z,18.63
2019-05-02T03:24:25.821Z,19.17
2019-05-02T03:26:58.453Z,23.23
2019-05-02T03:29:39.738Z,23.67
2019-05-02T03:32:13.483Z,18.10
2019-05-02T03:34:47.223Z,27.37
2019-05-02T03:37:09.589Z,21.37
2019-05-02T03:39:34.312Z,17.00
2019-05-02T03:42:05.262Z,21.75
2019-05-02T03:44:35.121Z,19.60
2019-05-02T03:47:05.298Z,27.37
2019-05-02T03:49:40.751Z,22.55
2019-05-02T03:52:06.978Z,19.57
2019-05-02T03:54:48.523Z,16.82
2019-05-02T03:57:08.192Z,17.07
2019-05-02T03:59:41.429Z,15.83
2019-05-02T04:02:14.213Z,18.80
2019-05-02T04:04:41.518Z,15.30
2019-05-02T04:07:11.632Z,14.77
2019-05-02T04:09:42.510Z,16.20
2019-05-02T04:12:18.966Z,14.95
2019-05-02T04:14:44.112Z,13.87
2019-05-02T04:17:14.133Z,11.48
2019-05-02T04:19:43.929Z,17.53
2019-05-02T04:22:14.532Z,23.23
2019-05-02T04:24:47.918Z,13.88
2019-05-02T04:27:16.413Z,12.83
2019-05-02T04:29:47.209Z,11.75
2019-05-02T04:32:16.982Z,14.40
2019-05-02T04:34:48.953Z,15.33
2019-05-02T04:37:18.068Z,13.00
2019-05-02T04:39:49.093Z,13.20
2019-05-02T04:42:23.253Z,17.07
2019-05-02T04:45:11.625Z,13.15
2019-05-02T04:47:22.959Z,14.50
2019-05-02T04:49:52.688Z,11.73
2019-05-02T04:52:22.407Z,9.63
2019-05-02T04:54:52.195Z,14.55
2019-05-02T04:57:29.271Z,10.43
2019-05-02T05:00:04.973Z,14.80
2019-05-02T05:02:30.839Z,14.80
2019-05-02T05:04:58.196Z,12.70
2019-05-02T05:07:31.118Z,20.85
2019-05-02T05:10:03.023Z,16.17
2019-05-02T05:12:32.470Z,13.63
2019-05-02T05:15:01.765Z,14.63
2019-05-02T05:17:33.891Z,14.53
2019-05-02T05:20:10.688Z,16.33
2019-05-02T05:22:36.519Z,14.43
2019-05-02T05:25:12.215Z,13.13
2019-05-02T05:27:42.830Z,16.17
2019-05-02T05:30:15.658Z,16.15
2019-05-02T05:32:44.777Z,16.87
2019-05-02T05:35:14.702Z,15.38
2019-05-02T05:37:51.478Z,15.37
2019-05-02T05:40:17.711Z,17.50
2019-05-02T05:42:48.088Z,14.20
2019-05-02T05:45:18.373Z,12.60
2019-05-02T05:47:52.535Z,10.45
2019-05-02T05:50:19.806Z,12.47
2019-05-02T05:52:51.881Z,14.15
2019-05-02T05:55:24.199Z,13.50
2019-05-02T05:57:59.474Z,11.37
2019-05-02T06:00:23.995Z,14.23
2019-05-02T06:03:01.311Z,9.45
2019-05-02T06:05:27.551Z,11.53
2019-05-02T06:07:57.538Z,9.93
2019-05-02T06:10:27.437Z,8.03
2019-05-02T06:12:57.126Z,10.07
2019-05-02T06:15:26.877Z,11.37
2019-05-02T06:17:59.983Z,10.97
2019-05-02T06:20:30.603Z,13.15
2019-05-02T06:23:00.104Z,13.23
2019-05-02T06:25:36.218Z,9.83
2019-05-02T06:28:05.335Z,13.83
2019-05-02T06:30:33.976Z,11.70
2019-05-02T06:33:03.883Z,12.10
2019-05-02T06:35:33.566Z,13.20
2019-05-02T06:38:03.328Z,10.88
2019-05-02T06:40:32.954Z,13.43
2019-05-02T06:43:04.167Z,10.78
2019-05-02T06:45:37.777Z,11.68
2019-05-02T06:48:05.475Z,14.38
2019-05-02T06:50:38.948Z,12.55
2019-05-02T06:53:09.813Z,11.00
2019-05-02T06:55:38.697Z,12.78
2019-05-02T06:58:08.875Z,12.67
2019-05-02T07:00:55.986Z,13.83
2019-05-02T07:03:11.495Z,15.57
2019-05-02T07:05:41.391Z,10.23
2019-05-02T07:08:13.363Z,14.93
2019-05-02T07:10:44.955Z,18.05
2019-05-02T07:13:15.086Z,15.65
2019-05-02T07:15:53.521Z,10.40
2019-05-02T07:18:23.719Z,10.33
2019-05-02T07:20:53.702Z,11.15
2019-05-02T07:23:23.411Z,9.17
2019-05-02T07:25:54.129Z,10.00
2019-05-02T07:28:24.284Z,17.67
2019-05-02T07:30:54.792Z,11.33
2019-05-02T07:33:24.689Z,9.00
2019-05-02T07:35:55.303Z,9.90
2019-05-02T07:38:27.530Z,12.45
2019-05-02T07:40:57.516Z,10.03
2019-05-02T07:43:27.500Z,9.60
2019-05-02T07:45:57.141Z,10.78
2019-05-02T07:48:26.865Z,10.68
2019-05-02T07:50:56.944Z,12.75
2019-05-02T07:53:26.993Z,6.55
2019-05-02T07:55:56.682Z,9.70
2019-05-02T07:58:26.358Z,9.20
2019-05-02T08:00:56.045Z,11.03
2019-05-02T08:03:29.368Z,14.20
2019-05-02T08:05:58.616Z,13.15
2019-05-02T08:08:31.726Z,8.68
2019-05-02T08:11:03.043Z,7.35
2019-05-02T08:13:33.064Z,6.85
2019-05-02T08:16:02.817Z,7.33
2019-05-02T08:18:32.516Z,7.10
2019-05-02T08:21:02.224Z,7.53
2019-05-02T08:23:32.021Z,6.40
2019-05-02T08:26:02.089Z,6.50
2019-05-02T08:28:38.963Z,7.05
2019-05-02T08:31:08.621Z,5.00
2019-05-02T08:33:38.418Z,5.37
2019-05-02T08:36:08.139Z,5.58
2019-05-02T08:38:37.850Z,5.37
2019-05-02T08:41:07.847Z,5.65
2019-05-02T08:43:40.269Z,6.42
2019-05-02T08:46:09.330Z,9.15
2019-05-02T08:48:41.730Z,5.55
2019-05-02T08:51:11.823Z,3.33
2019-05-02T08:53:41.642Z,4.87
2019-05-02T08:56:11.400Z,3.15
2019-05-02T08:58:44.907Z,6.47
2019-05-02T09:01:13.720Z,5.37
2019-05-02T09:03:59.235Z,4.22
2019-05-02T09:06:17.233Z,5.78
2019-05-02T09:08:51.361Z,6.65
2019-05-02T09:11:18.133Z,4.28
2019-05-02T09:13:48.459Z,4.37
2019-05-02T09:16:21.563Z,4.80
2019-05-02T09:18:51.779Z,5.72
2019-05-02T09:21:21.961Z,3.35
2019-05-02T09:23:51.940Z,2.90
2019-05-02T09:26:33.294Z,4.35
2019-05-02T09:28:56.223Z,4.75
2019-05-02T09:31:24.777Z,2.37
2019-05-02T09:33:55.684Z,3.83
2019-05-02T09:36:25.573Z,3.27
2019-05-02T09:38:57.618Z,3.20
2019-05-02T09:41:31.796Z,5.37
2019-05-02T09:43:58.297Z,7.10
2019-05-02T09:46:28.013Z,4.05
2019-05-02T09:49:02.897Z,6.78
2019-05-02T09:51:29.507Z,6.40
2019-05-02T09:54:02.688Z,6.60
2019-05-02T09:56:32.530Z,8.90
2019-05-02T09:59:22.783Z,6.25
2019-05-02T10:01:38.134Z,6.70
2019-05-02T10:04:08.582Z,3.22
2019-05-02T10:06:38.488Z,4.47
2019-05-02T10:09:11.787Z,5.00
2019-05-02T10:11:41.826Z,4.37
2019-05-02T10:14:12.706Z,4.55
2019-05-02T10:16:42.702Z,4.17
2019-05-02T10:19:13.522Z,6.72
2019-05-02T10:21:46.841Z,3.37
2019-05-02T10:24:16.086Z,4.90
2019-05-02T10:26:45.843Z,6.20
2019-05-02T10:29:16.004Z,5.37
2019-05-02T10:31:45.693Z,5.47
2019-05-02T10:34:17.703Z,7.70
2019-05-02T10:36:54.206Z,7.17
2019-05-02T10:39:18.194Z,4.37
2019-05-02T10:41:48.061Z,2.72
2019-05-02T10:44:17.749Z,4.17
2019-05-02T10:46:57.989Z,2.95
2019-05-02T10:49:32.946Z,5.33
2019-05-02T10:52:02.827Z,6.62
2019-05-02T10:54:36.462Z,3.65
2019-05-02T10:57:05.092Z,7.58
2019-05-02T10:59:34.824Z,3.15
2019-05-02T11:02:32.729Z,7.25
2019-05-02T11:05:06.366Z,5.55
2019-05-02T11:07:36.012Z,5.72
2019-05-02T11:10:07.345Z,4.78
2019-05-02T11:12:46.898Z,5.75
2019-05-02T11:15:35.568Z,5.65
2019-05-02T11:18:05.361Z,7.22
2019-05-02T11:20:35.271Z,9.35
2019-05-02T11:23:05.139Z,5.15
2019-05-02T11:25:34.914Z,3.95
2019-05-02T11:28:07.099Z,4.67
2019-05-02T11:30:38.017Z,5.58
2019-05-02T11:33:07.733Z,8.10
2019-05-02T11:35:41.765Z,4.20
2019-05-02T11:38:09.188Z,5.53
2019-05-02T11:40:39.259Z,7.60
2019-05-02T11:43:08.947Z,4.10
2019-05-02T11:45:38.737Z,8.50
2019-05-02T11:48:11.035Z,7.83
2019-05-02T11:50:42.151Z,6.45
2019-05-02T11:53:23.220Z,6.50
2019-05-02T11:55:43.835Z,4.80
2019-05-02T11:58:13.760Z,7.45
2019-05-02T12:00:45.541Z,4.78
2019-05-02T12:03:28.260Z,9.18
2019-05-02T12:05:55.658Z,8.50
2019-05-02T12:08:25.676Z,9.10
2019-05-02T12:10:55.425Z,8.95
2019-05-02T12:13:25.055Z,12.78
2019-05-02T12:15:54.742Z,7.53
2019-05-02T12:18:24.677Z,11.53
2019-05-02T12:20:54.351Z,9.85
2019-05-02T12:23:24.064Z,11.35
2019-05-02T12:25:54.211Z,10.95
2019-05-02T12:28:23.877Z,13.45
2019-05-02T12:30:53.573Z,12.82
2019-05-02T12:33:24.929Z,11.78
2019-05-02T12:35:54.645Z,8.40
2019-05-02T12:38:24.444Z,11.65
2019-05-02T12:40:54.161Z,10.55
2019-05-02T12:43:23.865Z,8.47
2019-05-02T12:45:53.881Z,10.10
2019-05-02T12:48:23.617Z,9.80
2019-05-02T12:50:53.295Z,11.57
2019-05-02T12:53:23.096Z,11.50
2019-05-02T12:55:52.898Z,11.48
2019-05-02T12:58:22.655Z,8.48
2019-05-02T13:00:53.048Z,8.93
2019-05-02T13:03:43.734Z,10.63
2019-05-02T13:06:14.598Z,10.60
2019-05-02T13:08:52.572Z,8.35
2019-05-02T13:11:42.178Z,11.65
2019-05-02T13:14:18.568Z,10.58
2019-05-02T13:16:43.014Z,8.10
2019-05-02T13:19:13.102Z,13.77
2019-05-02T13:21:50.207Z,8.70
2019-05-02T13:24:36.490Z,8.68
2019-05-02T13:27:09.725Z,8.18
2019-05-02T13:29:39.607Z,6.87
2019-05-02T13:32:27.148Z,8.35
2019-05-02T13:35:09.527Z,6.53
2019-05-02T13:37:39.385Z,5.85
2019-05-02T13:40:17.101Z,5.75
2019-05-02T13:42:46.152Z,5.67
2019-05-02T13:45:26.897Z,5.72
2019-05-02T13:47:56.780Z,6.60
2019-05-02T13:50:26.859Z,5.92
2019-05-02T13:52:57.999Z,5.35
2019-05-02T13:55:32.516Z,7.20
2019-05-02T13:58:02.422Z,7.35
2019-05-02T14:00:39.031Z,7.83
2019-05-02T14:03:08.827Z,7.80
2019-05-02T14:05:45.953Z,6.50
2019-05-02T14:08:18.777Z,9.23
2019-05-02T14:10:50.361Z,7.10
2019-05-02T14:13:22.063Z,7.30
2019-05-02T14:15:52.762Z,5.67
2019-05-02T14:18:28.683Z,4.95
2019-05-02T14:20:54.009Z,5.67
2019-05-02T14:23:23.802Z,3.95
2019-05-02T14:25:53.505Z,8.80
2019-05-02T14:28:26.796Z,8.63
2019-05-02T14:30:54.669Z,3.70
2019-05-02T14:33:26.017Z,4.10
2019-05-02T14:35:55.773Z,6.83
2019-05-02T14:38:25.512Z,8.85
2019-05-02T14:41:23.244Z,6.85
2019-05-02T14:43:56.633Z,7.63
2019-05-02T14:46:37.385Z,14.75
2019-05-02T14:48:58.698Z,9.40
2019-05-02T14:51:28.516Z,8.08
2019-05-02T14:54:03.744Z,6.92
2019-05-02T14:56:54.189Z,9.33
2019-05-02T14:59:23.969Z,7.40
2019-05-02T15:01:57.749Z,11.53
2019-05-02T15:04:27.791Z,7.22
2019-05-02T15:06:57.780Z,8.30
2019-05-02T15:09:27.485Z,10.80
2019-05-02T15:12:03.034Z,7.33
2019-05-02T15:14:34.347Z,4.78
2019-05-02T15:17:05.734Z,9.23
2019-05-02T15:19:36.482Z,5.33
2019-05-02T15:22:06.306Z,6.05
2019-05-02T15:24:37.902Z,7.47
2019-05-02T15:27:13.319Z,9.20
2019-05-02T15:29:39.066Z,6.80
2019-05-02T15:32:25.459Z,18.02
2019-05-02T15:35:17.750Z,7.08
2019-05-02T15:37:45.383Z,10.07
2019-05-02T15:42:56.775Z,8.53
2019-05-02T15:45:24.616Z,10.53
2019-05-02T15:47:54.343Z,10.72
2019-05-02T15:50:25.769Z,7.05
2019-05-02T15:53:09.789Z,6.67
2019-05-02T15:55:39.369Z,10.98
2019-05-02T15:58:16.990Z,5.28
2019-05-02T16:01:08.206Z,7.17
2019-05-02T16:03:46.144Z,6.17
2019-05-02T16:06:21.855Z,10.82
2019-05-02T16:08:49.026Z,7.47
2019-05-02T16:11:19.047Z,7.15
2019-05-02T16:13:52.422Z,8.00
2019-05-02T16:16:22.460Z,10.80
2019-05-02T16:18:52.761Z,7.62
2019-05-02T16:21:34.481Z,7.25
2019-05-02T16:24:22.883Z,9.18
2019-05-02T16:26:56.660Z,6.45
2019-05-02T16:29:28.412Z,8.25
2019-05-02T16:32:13.184Z,9.13
2019-05-02T16:34:55.042Z,8.18
2019-05-02T16:37:26.149Z,6.67
2019-05-02T16:39:56.008Z,10.72
2019-05-02T16:42:25.797Z,8.25
2019-05-02T16:44:55.612Z,7.10
2019-05-02T16:47:25.428Z,8.40
2019-05-02T16:49:56.544Z,8.45
2019-05-02T16:52:26.402Z,8.38
2019-05-02T16:54:56.246Z,14.40
2019-05-02T16:57:25.921Z,8.93
2019-05-02T17:00:01.682Z,10.45
2019-05-02T17:02:27.197Z,10.95
2019-05-02T17:05:00.276Z,15.23
2019-05-02T17:07:42.599Z,9.28
2019-05-02T17:10:21.060Z,9.38
2019-05-02T17:12:55.427Z,7.10
2019-05-02T17:15:35.174Z,8.28
2019-05-02T17:18:05.098Z,12.40
2019-05-02T17:20:35.067Z,11.08
2019-05-02T17:23:07.609Z,11.85
2019-05-02T17:25:36.822Z,10.30
2019-05-02T17:28:10.398Z,5.92
2019-05-02T17:30:40.646Z,8.78
2019-05-02T17:33:14.322Z,9.55
2019-05-02T17:35:49.640Z,8.13
2019-05-02T17:38:14.093Z,5.83
2019-05-02T17:40:43.902Z,6.78
2019-05-02T17:43:13.666Z,10.45
2019-05-02T17:45:43.501Z,8.60
2019-05-02T17:48:16.052Z,6.87
2019-05-02T17:50:59.238Z,7.60
2019-05-02T17:53:33.946Z,8.40
2019-05-02T17:56:01.873Z,7.10
2019-05-02T17:58:32.830Z,6.72
2019-05-02T18:01:04.205Z,5.83
2019-05-02T18:03:35.371Z,6.72
2019-05-02T18:06:07.572Z,9.15
2019-05-02T18:08:37.100Z,14.73
2019-05-02T18:11:06.863Z,5.72
2019-05-02T18:13:37.264Z,12.13
2019-05-02T18:16:12.570Z,13.13
2019-05-02T18:18:45.141Z,7.40
2019-05-02T18:21:10.034Z,6.60
2019-05-02T18:23:39.781Z,6.00
2019-05-02T18:26:11.422Z,9.60
2019-05-02T18:28:48.640Z,14.23
2019-05-02T18:31:12.360Z,20.80
2019-05-02T18:33:42.541Z,8.83
2019-05-02T18:36:12.359Z,7.43
2019-05-02T18:38:42.081Z,8.05
2019-05-02T18:41:12.172Z,10.08
2019-05-02T18:43:45.230Z,6.50
2019-05-02T18:46:13.642Z,9.50
2019-05-02T18:48:46.838Z,9.47
2019-05-02T18:51:17.130Z,10.17
2019-05-02T18:53:47.675Z,14.07
2019-05-02T18:56:17.407Z,8.77
2019-05-02T18:58:47.219Z,9.27
2019-05-02T19:01:20.872Z,7.00
2019-05-02T19:03:52.399Z,3.85
2019-05-02T19:06:22.175Z,7.73
2019-05-02T19:08:54.899Z,7.10
2019-05-02T19:11:26.957Z,6.37
2019-05-02T19:13:56.073Z,8.23
2019-05-02T19:16:28.654Z,10.43
2019-05-02T19:18:58.313Z,11.17
2019-05-02T19:21:33.991Z,9.13
2019-05-02T19:23:59.570Z,9.80
2019-05-02T19:26:30.128Z,17.10
2019-05-02T19:29:12.793Z,5.27
2019-05-02T19:31:46.026Z,11.93
2019-05-02T19:34:16.959Z,10.77
2019-05-02T19:36:45.299Z,7.93
2019-05-02T19:39:15.026Z,9.23
2019-05-02T19:41:45.827Z,13.58
2019-05-02T19:44:15.555Z,11.57
2019-05-02T19:46:46.770Z,9.63
2019-05-02T19:49:16.573Z,10.17
2019-05-02T19:51:50.580Z,11.23
2019-05-02T19:54:17.709Z,10.33
2019-05-02T19:56:47.749Z,12.50
2019-05-02T19:59:24.539Z,6.57
2019-05-02T20:01:49.441Z,8.60
2019-05-02T20:04:19.105Z,7.73
2019-05-02T20:06:49.870Z,10.47
2019-05-02T20:09:19.605Z,7.80
2019-05-02T20:11:49.290Z,8.40
2019-05-02T20:14:19.108Z,10.10
2019-05-02T20:16:52.854Z,11.10
2019-05-02T20:19:26.765Z,8.00
2019-05-02T20:22:06.499Z,9.53
2019-05-02T20:24:55.305Z,10.93
2019-05-02T20:27:22.468Z,11.23
2019-05-02T20:29:52.943Z,12.20
2019-05-02T20:32:22.635Z,11.43
2019-05-02T20:34:52.329Z,9.30
2019-05-02T20:37:22.261Z,12.20
2019-05-02T20:39:52.002Z,9.10
2019-05-02T20:42:21.734Z,9.37
2019-05-02T20:44:52.762Z,9.57
2019-05-02T20:47:25.485Z,12.90
2019-05-02T20:49:55.205Z,10.07
2019-05-02T20:52:24.913Z,8.60
2019-05-02T20:54:54.622Z,9.23
2019-05-02T20:57:24.229Z,9.27
2019-05-02T20:59:53.930Z,14.40
2019-05-02T21:02:23.866Z,11.00
2019-05-02T21:04:53.522Z,11.50
2019-05-02T21:07:33.090Z,11.13
2019-05-02T21:10:21.770Z,5.83
2019-05-02T21:12:52.672Z,10.80
2019-05-02T21:15:23.378Z,9.33
2019-05-02T21:17:53.329Z,11.17
2019-05-02T21:20:23.092Z,8.57
2019-05-02T21:22:53.110Z,8.83
2019-05-02T21:25:23.312Z,8.27
2019-05-02T21:27:54.157Z,14.57
2019-05-02T21:30:27.666Z,11.07
2019-05-02T21:32:57.426Z,9.03
2019-05-02T21:35:27.521Z,11.30
2019-05-02T21:37:57.166Z,12.53
2019-05-02T21:40:26.819Z,15.07
2019-05-02T21:42:56.773Z,11.53
2019-05-02T21:45:26.449Z,8.80
2019-05-02T21:47:56.082Z,10.70
2019-05-02T21:50:32.986Z,7.20
2019-05-02T21:53:19.829Z,13.73
2019-05-02T21:55:58.166Z,7.67
2019-05-02T21:58:27.903Z,12.40
2019-05-02T22:01:12.761Z,10.43
2019-05-02T22:03:42.033Z,13.60
2019-05-02T22:06:12.232Z,13.13
2019-05-02T22:08:41.957Z,11.40
2019-05-02T22:11:12.248Z,9.67
2019-05-02T22:13:42.393Z,10.93
2019-05-02T22:16:12.959Z,13.03
2019-05-02T22:18:42.886Z,11.97
2019-05-02T22:21:12.564Z,22.47
2019-05-02T22:23:42.639Z,15.53
2019-05-02T22:26:12.857Z,13.17
2019-05-02T22:28:43.637Z,9.33
2019-05-02T22:31:13.321Z,8.70
2019-05-02T22:33:44.624Z,11.53
2019-05-02T22:36:14.516Z,12.83
2019-05-02T22:38:49.886Z,13.47
2019-05-02T22:41:22.032Z,15.20
2019-05-02T22:43:51.154Z,17.23
2019-05-02T22:46:38.549Z,14.37
2019-05-02T22:49:08.166Z,11.77
2019-05-02T22:51:38.071Z,13.10
2019-05-02T22:54:21.103Z,9.53
2019-05-02T22:56:39.602Z,10.80
2019-05-02T22:59:10.192Z,9.97
2019-05-02T23:01:41.943Z,11.50
2019-05-02T23:04:12.771Z,10.27
2019-05-02T23:06:44.327Z,13.50
2019-05-02T23:09:14.193Z,6.87
2019-05-02T23:11:43.914Z,6.67
2019-05-02T23:14:13.645Z,10.80
2019-05-02T23:16:43.481Z,10.97
2019-05-02T23:19:13.206Z,17.50
2019-05-02T23:21:43.951Z,10.03
2019-05-02T23:24:19.930Z,15.93
2019-05-02T23:27:16.261Z,14.33
2019-05-02T23:29:45.882Z,12.70
2019-05-02T23:32:15.563Z,8.70
2019-05-02T23:34:45.195Z,19.93
2019-05-02T23:37:14.897Z,15.53
2019-05-02T23:39:44.549Z,13.93
2019-05-02T23:42:14.290Z,12.87
2019-05-02T23:44:44.997Z,18.17
2019-05-02T23:47:14.690Z,12.77
2019-05-02T23:49:44.336Z,15.37
2019-05-02T23:52:13.986Z,14.17
2019-05-02T23:54:51.758Z,13.27
2019-05-02T23:57:15.065Z,15.23
2019-05-02T23:59:44.787Z,12.80
